Alton, IA

8:13 PM CST on February 01, 2015 (GMT -0600)
IADOT Alton (IA10) | Change Station
CLOSE
Current Station
Personal Weather Station
Location: Orange City, IA
Elevation: 1410 ft
Nearby Weather Stations

Elev 1410 ft 43.00 °N, 96.08 °W | Updated 53 minutes ago

Clear
Clear
6 °F
Feels Like -12 °F
N
16
Wind Variable Wind from NNW
Gusts 21.0 mph

Today
High -- | Low -- °F
--% Chance of Precip.
Yesterday
High -- | Low -- °F
Precip. -- in
7:39 AM 5:36 PM
Waxing Gibbous, 97% visible
Pressure 30.27 in
Visibility -9999.0 miles
Clouds Clear
Windchill -12 °F
Dew Point 1 °F
Humidity 80%
Rainfall -999.00 in
Snow Depth Not available.
UV 0 out of 12
Pollen .10 out of 12
Air Quality Not available.
Flu Activity Not available.
METAR KORC 020155Z AUTO 34009G15KT CLR M14/M18 A3027 RMK AO2 PWINO

More Conditions Fewer Conditions

Pressure 30.27 in
Visibility -9999.0 miles
Clouds Clear
Windchill -12 °F
Dew Point 1 °F
Humidity 80%
Rainfall -999.00 in
Snow Depth Not available.
UV 0 out of 12
Pollen .10 out of 12
Air Quality Not available.
Flu Activity Not available.
METAR KORC 020155Z AUTO 34009G15KT CLR M14/M18 A3027 RMK AO2 PWINO

More Conditions Fewer Conditions

10-Day Weather Forecast

Almanac

Astronomy

Feb. 01, 2015 Rise Set
Actual Time
Civil Twilight
Nautical Twilight
Astronomical Twilight
Moon
Length of Visible Light
Length of Day
Tomorrow will be .
, % of the Moon is Illuminated

Today's Extremes

State Highs State Lows

Community

WunderPhotos

Upload Photos

1,792,655 photos uploaded!

WunderBlogs® & News

Nearby

Air Quality

  Air Quality AQ Index Pollutant
Not available.

Snow Depth

Station Depth Elevation

Earthquake Activity

City Distance Mag. Time & Date
Minimum magnitude displayed is 2.5.

Coastal Water Temperatures

Place Temperature

Nearby Weather Stations